Saint Louis, MO

12:04 PM CST on February 12, 2016 (GMT -0600)
Jefferson Barracks | | Change Station
CLOSE
Current Station
Personal Weather Station
Location: Mehlville, MO
Elevation: 536 ft
Nearby Weather Stations

Elev 536 ft 38.50 °N, 90.30 °W | Updated 3 seconds ago

Overcast
Overcast
36.0 °F
Feels Like 30 °F
N
7.6
Wind Variable Wind from West
Gusts 13.8 mph

Today
High -- | Low -- °F
--% Chance of Precip.
Yesterday
High -- | Low -- °F
Precip. -- in
Pressure 30.34 in
Visibility 10.0 miles
Clouds Scattered Clouds 1900 ft
Overcast 3600 ft
Windchill 30 °F
Dew Point 26 °F
Humidity 66%
Rainfall 0.00 in
Snow Depth Not available.
6:55 AM 5:35 PM
Waxing Crescent, 22% visible
METAR KSTL 121751Z 32015G18KT 10SM SCT019 OVC036 01/M05 A3030 RMK AO2 SLP273 60000 T00061050 10006 21033 50009
Pressure 30.34 in
Visibility 10.0 miles
Clouds Scattered Clouds 1900 ft
Overcast 3600 ft
Windchill 30 °F
Dew Point 26 °F
Humidity 66%
Rainfall 0.00 in
Snow Depth Not available.
6:55 AM 5:35 PM
Waxing Crescent, 22% visible
METAR KSTL 121751Z 32015G18KT 10SM SCT019 OVC036 01/M05 A3030 RMK AO2 SLP273 60000 T00061050 10006 21033 50009

10-Day Weather Forecast

Almanac

Astronomy

Feb. 12, 2016 Rise Set
Actual Time
Civil Twilight
Nautical Twilight
Astronomical Twilight
Moon
Length of Visible Light
Length of Day
Tomorrow will be .
, % of the Moon is Illuminated

Today's Extremes

State Highs State Lows

Community

WunderPhotos

Upload Photos

1,892,357 photos uploaded!

WunderBlog® & News

Nearby

Air Quality

  Air Quality AQ Index Pollutant
Not available.

Snow Depth

Station Depth Elevation

Earthquake Activity

City Distance Mag. Time & Date
Minimum magnitude displayed is 2.5.

Coastal Water Temperatures

Place Temperature

Stations

Nearby Weather Stations

Station Location Temp. Windchill Dew Point Humidity Wind Precip. Elev Updated Type
                   

Watches & Warnings

There are currently no watches in effect.